aviador You're here:

KBWW Decoded Metar

in
Report Time2017-07-21 08:35:00
UTC Time2017-07-21 08:40:14
Flight Rules vfr VFR
Wind200° at 14 Gusting to 19 kt
W.Decomp.*RWY 13: 4.8 kt HW 13.2 kt RCW
W.Rank200° ranks 15
Current wind is above 200° avg. (9.1)
Visibility9999 m
Phenomena:N/A
Clouds:N/A
Expected CloudBase > 800 ft AGL from Temp-Dew spread
CeilingNone
Temp19°C
Dew Point17°C (88% RH)
AAT16.3°C
QNH1007 hPa
Raw Report
METAR KBWW 210835Z AUTO 20014G19KT 10SM CLR 19/17 A2975 RMK AO2=

Extra information for KBWW:More info

Social comments